createdAt,value
2024-05-09T00:00:37.913Z,0.20
2024-05-09T00:03:10.814Z,0.30
2024-05-09T00:05:38.949Z,0.28
2024-05-09T00:08:05.905Z,0.20
2024-05-09T00:10:37.130Z,0.20
2024-05-09T00:13:06.430Z,0.30
2024-05-09T00:15:34.034Z,0.30
2024-05-09T00:18:01.387Z,0.30
2024-05-09T00:20:36.242Z,0.30
2024-05-09T00:23:07.458Z,0.28
2024-05-09T00:25:34.846Z,0.22
2024-05-09T00:28:01.563Z,0.30
2024-05-09T00:30:34.046Z,0.30
2024-05-09T00:33:03.638Z,0.20
2024-05-09T00:35:30.875Z,0.25
2024-05-09T00:37:57.584Z,0.20
2024-05-09T00:40:34.772Z,0.22
2024-05-09T00:43:05.705Z,0.20
2024-05-09T00:45:32.368Z,0.30
2024-05-09T00:48:01.642Z,0.20
2024-05-09T00:50:35.653Z,0.20
2024-05-09T00:53:04.985Z,0.22
2024-05-09T00:55:31.755Z,0.20
2024-05-09T00:57:58.315Z,0.20
2024-05-09T01:00:31.659Z,0.20
2024-05-09T01:03:05.328Z,0.20
2024-05-09T01:05:32.621Z,0.40
2024-05-09T01:07:59.300Z,0.22
2024-05-09T01:10:33.515Z,0.30
2024-05-09T01:13:04.331Z,0.35
2024-05-09T01:15:31.019Z,0.20
2024-05-09T01:17:58.254Z,0.30
2024-05-09T01:20:36.553Z,0.30
2024-05-09T01:23:08.431Z,0.20
2024-05-09T01:25:35.651Z,0.30
2024-05-09T01:28:02.338Z,0.20
2024-05-09T01:30:34.596Z,0.20
2024-05-09T01:33:04.040Z,0.30
2024-05-09T01:35:30.886Z,0.20
2024-05-09T01:37:57.520Z,0.20
2024-05-09T01:40:33.468Z,0.20
2024-05-09T01:43:06.875Z,0.30
2024-05-09T01:45:33.673Z,0.30
2024-05-09T01:48:00.742Z,0.50
2024-05-09T01:52:57.076Z,0.40
2024-05-09T01:55:23.724Z,0.30
2024-05-09T01:57:53.458Z,0.38
2024-05-09T02:00:30.204Z,0.30
2024-05-09T02:03:04.238Z,0.20
2024-05-09T02:05:30.928Z,0.30
2024-05-09T02:07:57.481Z,0.38
2024-05-09T02:10:31.703Z,0.30
2024-05-09T02:12:59.422Z,0.30
2024-05-09T02:15:25.930Z,0.22
2024-05-09T02:17:53.678Z,0.35
2024-05-09T02:20:30.100Z,0.40
2024-05-09T02:23:03.825Z,0.47
2024-05-09T02:25:30.957Z,0.20
2024-05-09T02:27:57.501Z,0.30
2024-05-09T02:30:31.067Z,0.28
2024-05-09T02:33:05.935Z,0.30
2024-05-09T02:35:32.971Z,0.35
2024-05-09T02:37:59.828Z,0.30
2024-05-09T02:40:35.479Z,0.20
2024-05-09T02:43:04.735Z,0.30
2024-05-09T02:45:31.357Z,0.30
2024-05-09T02:47:58.257Z,0.30
2024-05-09T02:50:33.556Z,0.28
2024-05-09T02:53:04.861Z,0.40
2024-05-09T02:55:33.240Z,0.30
2024-05-09T02:57:59.855Z,0.30
2024-05-09T03:00:34.830Z,0.30
2024-05-09T03:03:07.150Z,0.30
2024-05-09T03:05:34.283Z,0.20
2024-05-09T03:08:04.154Z,0.30
2024-05-09T03:10:35.952Z,0.30
2024-05-09T03:13:07.980Z,0.30
2024-05-09T03:15:34.656Z,0.38
2024-05-09T03:18:05.633Z,0.30
2024-05-09T03:20:35.064Z,0.22
2024-05-09T03:23:03.599Z,0.40
2024-05-09T03:25:30.474Z,0.40
2024-05-09T03:27:57.193Z,0.50
2024-05-09T03:30:38.437Z,0.30
2024-05-09T03:33:13.546Z,0.47
2024-05-09T03:35:41.191Z,0.40
2024-05-09T03:38:07.876Z,0.32
2024-05-09T03:40:34.471Z,0.40
2024-05-09T03:43:00.965Z,0.60
2024-05-09T03:45:27.500Z,0.30
2024-05-09T03:47:54.393Z,0.40
2024-05-09T03:50:26.442Z,0.50
2024-05-09T03:53:00.336Z,0.50
2024-05-09T03:55:27.125Z,0.50
2024-05-09T03:57:53.674Z,0.77
2024-05-09T04:00:30.401Z,0.50
2024-05-09T04:03:02.563Z,0.60
2024-05-09T04:05:30.766Z,0.63
2024-05-09T04:07:57.814Z,0.70
2024-05-09T04:10:31.195Z,0.90
2024-05-09T04:13:00.523Z,0.63
2024-05-09T04:15:27.111Z,0.88
2024-05-09T04:17:53.874Z,0.70
2024-05-09T04:20:29.531Z,1.08
2024-05-09T04:23:03.923Z,0.98
2024-05-09T04:25:31.729Z,0.70
2024-05-09T04:27:58.240Z,0.80
2024-05-09T04:30:34.424Z,0.70
2024-05-09T04:33:05.698Z,0.50
2024-05-09T04:35:32.623Z,0.75
2024-05-09T04:37:59.249Z,0.70
2024-05-09T04:40:33.020Z,0.65
2024-05-09T04:43:02.338Z,0.70
2024-05-09T04:45:28.927Z,0.63
2024-05-09T04:47:55.697Z,0.70
2024-05-09T04:50:30.172Z,0.77
2024-05-09T04:53:03.101Z,0.60
2024-05-09T04:55:29.733Z,0.60
2024-05-09T04:57:56.273Z,0.80
2024-05-09T05:00:32.267Z,0.60
2024-05-09T05:03:06.888Z,0.70
2024-05-09T05:05:34.748Z,0.70
2024-05-09T05:08:01.558Z,0.63
2024-05-09T05:10:33.985Z,0.65
2024-05-09T05:13:22.713Z,0.50
2024-05-09T05:15:51.199Z,0.75
2024-05-09T05:18:18.287Z,0.73
2024-05-09T05:20:45.337Z,0.70
2024-05-09T05:23:13.681Z,0.60
2024-05-09T05:25:40.884Z,0.75
2024-05-09T05:28:07.627Z,0.73
2024-05-09T05:30:35.270Z,0.80
2024-05-09T05:33:02.294Z,0.68
2024-05-09T05:35:29.414Z,0.50
2024-05-09T05:37:56.084Z,0.80
2024-05-09T05:40:32.036Z,0.60
2024-05-09T05:43:02.961Z,0.73
2024-05-09T05:45:29.506Z,0.70
2024-05-09T05:47:56.398Z,0.60
2024-05-09T05:50:28.091Z,0.70
2024-05-09T05:53:01.994Z,0.55
2024-05-09T05:55:28.619Z,0.65
2024-05-09T05:57:55.138Z,0.70
2024-05-09T06:00:29.416Z,0.80
2024-05-09T06:03:02.284Z,0.80
2024-05-09T06:05:29.170Z,0.82
2024-05-09T06:07:55.931Z,0.70
2024-05-09T06:10:26.346Z,0.90
2024-05-09T06:13:01.361Z,0.70
2024-05-09T06:15:30.832Z,0.63
2024-05-09T06:17:57.541Z,0.80
2024-05-09T06:20:33.605Z,0.70
2024-05-09T06:23:03.463Z,0.65
2024-05-09T06:25:30.124Z,0.68
2024-05-09T06:27:56.678Z,0.90
2024-05-09T06:30:30.351Z,0.73
2024-05-09T06:33:04.950Z,0.60
2024-05-09T06:35:31.976Z,0.70
2024-05-09T06:37:58.619Z,0.90
2024-05-09T06:40:29.752Z,0.60
2024-05-09T06:43:02.892Z,0.88
2024-05-09T06:45:31.693Z,0.80
2024-05-09T06:47:58.395Z,0.73
2024-05-09T06:50:28.356Z,0.93
2024-05-09T06:52:58.320Z,0.73
2024-05-09T06:55:24.953Z,0.80
2024-05-09T06:57:51.484Z,0.82
2024-05-09T07:00:27.526Z,0.85
2024-05-09T07:03:05.382Z,0.68
2024-05-09T07:08:01.206Z,0.68
2024-05-09T07:10:34.082Z,0.70
2024-05-09T07:13:01.939Z,0.70
2024-05-09T07:15:28.496Z,0.80
2024-05-09T07:17:55.278Z,0.70
2024-05-09T07:20:31.732Z,0.70
2024-05-09T07:23:01.979Z,0.70
2024-05-09T07:25:28.747Z,0.90
2024-05-09T07:27:55.394Z,0.70
2024-05-09T07:30:27.751Z,0.70
2024-05-09T07:33:00.257Z,0.68
2024-05-09T07:35:27.631Z,0.70
2024-05-09T07:37:54.526Z,0.90
2024-05-09T07:40:31.704Z,0.70
2024-05-09T07:45:45.031Z,1.05
2024-05-09T07:53:38.164Z,0.90
2024-05-09T07:56:04.984Z,1.00
2024-05-09T07:58:37.479Z,0.80
2024-05-09T08:01:04.345Z,0.70
2024-05-09T08:03:31.448Z,0.90
2024-05-09T08:05:58.053Z,0.90
2024-05-09T08:08:24.604Z,0.82
2024-05-09T08:10:51.366Z,0.85
2024-05-09T08:13:18.042Z,1.00
2024-05-09T08:15:44.891Z,0.88
2024-05-09T08:18:11.801Z,1.02
2024-05-09T08:20:39.017Z,1.00
2024-05-09T08:23:05.689Z,0.82
2024-05-09T08:25:32.295Z,1.05
2024-05-09T08:27:58.865Z,1.30
2024-05-09T08:30:32.781Z,0.90
2024-05-09T08:33:04.064Z,1.00
2024-05-09T08:35:31.909Z,1.17
2024-05-09T08:37:58.644Z,1.25
2024-05-09T08:40:32.924Z,1.10
2024-05-09T08:43:02.614Z,1.00
2024-05-09T08:45:29.695Z,1.08
2024-05-09T08:47:56.629Z,1.00
2024-05-09T08:50:32.152Z,0.93
2024-05-09T08:53:05.143Z,1.00
2024-05-09T08:55:31.954Z,1.42
2024-05-09T08:57:59.261Z,1.15
2024-05-09T09:00:35.625Z,0.98
2024-05-09T09:03:05.877Z,0.90
2024-05-09T09:05:33.677Z,1.10
2024-05-09T09:08:00.514Z,1.00
2024-05-09T09:10:32.000Z,1.17
2024-05-09T09:13:09.440Z,1.40
2024-05-09T09:15:49.026Z,0.95
2024-05-09T09:18:16.473Z,1.13
2024-05-09T09:20:43.620Z,1.08
2024-05-09T09:23:10.225Z,1.27
2024-05-09T09:25:39.260Z,1.30
2024-05-09T09:28:06.825Z,1.25
2024-05-09T09:30:37.353Z,1.30
2024-05-09T09:33:13.788Z,1.45
2024-05-09T09:35:40.977Z,1.83
2024-05-09T09:38:08.295Z,1.70
2024-05-09T09:40:40.452Z,1.73
2024-05-09T09:43:13.967Z,1.40
2024-05-09T09:45:41.926Z,1.27
2024-05-09T09:48:10.414Z,1.20
2024-05-09T09:50:37.590Z,1.25
2024-05-09T09:53:05.078Z,1.30
2024-05-09T09:55:32.660Z,1.10
2024-05-09T09:57:59.747Z,1.15
2024-05-09T10:00:32.528Z,1.50
2024-05-09T10:03:00.450Z,1.45
2024-05-09T10:05:29.888Z,1.40
2024-05-09T10:07:57.475Z,1.67
2024-05-09T10:10:31.580Z,1.30
2024-05-09T10:13:08.877Z,1.88
2024-05-09T10:15:50.819Z,1.90
2024-05-09T10:18:22.691Z,2.03
2024-05-09T10:20:54.476Z,2.00
2024-05-09T10:23:28.110Z,2.30
2024-05-09T10:25:57.203Z,2.10
2024-05-09T10:28:30.703Z,1.88
2024-05-09T10:31:07.218Z,1.60
2024-05-09T10:33:37.697Z,2.10
2024-05-09T10:36:10.334Z,2.30
2024-05-09T10:38:37.055Z,2.00
2024-05-09T10:41:03.698Z,2.10
2024-05-09T10:43:31.182Z,2.60
2024-05-09T10:45:59.271Z,2.63
2024-05-09T10:48:26.897Z,2.30
2024-05-09T10:50:53.560Z,2.40
2024-05-09T10:53:20.079Z,2.20
2024-05-09T10:56:06.853Z,2.30
2024-05-09T10:58:33.440Z,2.20
2024-05-09T11:01:01.191Z,2.08
2024-05-09T11:03:29.137Z,1.80
2024-05-09T11:05:55.832Z,2.05
2024-05-09T11:08:22.981Z,1.60
2024-05-09T11:10:52.256Z,1.52
2024-05-09T11:13:32.067Z,1.90
2024-05-09T11:16:01.612Z,1.67
2024-05-09T11:18:32.297Z,1.85
2024-05-09T11:21:02.161Z,1.73
2024-05-09T11:23:31.969Z,1.80
2024-05-09T11:25:58.876Z,1.80
2024-05-09T11:28:26.734Z,1.50
2024-05-09T11:31:03.792Z,1.83
2024-05-09T11:33:30.514Z,1.90
2024-05-09T11:35:57.068Z,1.73
2024-05-09T11:38:23.602Z,1.48
2024-05-09T11:40:50.213Z,2.10
2024-05-09T11:43:16.940Z,2.03
2024-05-09T11:45:43.578Z,2.20
2024-05-09T11:48:10.266Z,1.70
2024-05-09T11:50:36.902Z,2.10
2024-05-09T11:53:03.502Z,1.98
2024-05-09T11:55:30.809Z,1.75
2024-05-09T11:57:57.560Z,1.92
2024-05-09T12:00:33.928Z,1.65
2024-05-09T12:03:05.411Z,2.20
2024-05-09T12:05:33.115Z,1.73
2024-05-09T12:08:00.663Z,1.88
2024-05-09T12:10:33.127Z,2.17
2024-05-09T12:13:02.620Z,2.22
2024-05-09T12:15:29.888Z,1.73
2024-05-09T12:17:59.033Z,2.13
2024-05-09T12:20:35.414Z,1.65
2024-05-09T12:23:05.316Z,2.55
2024-05-09T12:25:31.873Z,2.35
2024-05-09T12:27:58.507Z,2.10
2024-05-09T12:30:33.251Z,1.85
2024-05-09T12:33:04.924Z,1.65
2024-05-09T12:35:31.612Z,1.98
2024-05-09T12:37:58.160Z,2.25
2024-05-09T12:40:34.198Z,2.22
2024-05-09T12:43:04.075Z,1.90
2024-05-09T12:45:30.808Z,1.55
2024-05-09T12:47:57.490Z,2.00
2024-05-09T12:50:31.077Z,1.40
2024-05-09T12:52:59.576Z,1.85
2024-05-09T12:55:26.977Z,1.83
2024-05-09T12:57:54.674Z,1.92
2024-05-09T13:00:27.984Z,2.17
2024-05-09T13:03:00.247Z,1.80
2024-05-09T13:05:27.176Z,1.50
2024-05-09T13:07:53.935Z,1.63
2024-05-09T13:10:28.965Z,1.50
2024-05-09T13:13:01.821Z,1.60
2024-05-09T13:15:30.246Z,1.40
2024-05-09T13:18:00.343Z,1.70
2024-05-09T13:20:33.222Z,1.60
2024-05-09T13:23:04.031Z,1.48
2024-05-09T13:25:30.859Z,1.48
2024-05-09T13:27:57.672Z,1.30
2024-05-09T13:30:34.924Z,1.30
2024-05-09T13:33:06.970Z,1.67
2024-05-09T13:35:35.411Z,1.27
2024-05-09T13:38:02.758Z,1.25
2024-05-09T13:40:33.846Z,1.15
2024-05-09T13:43:02.754Z,1.42
2024-05-09T13:45:30.577Z,1.40
2024-05-09T13:47:57.551Z,1.13
2024-05-09T13:50:33.045Z,1.90
2024-05-09T13:53:02.574Z,1.40
2024-05-09T13:55:29.130Z,1.20
2024-05-09T13:57:56.012Z,1.40
2024-05-09T14:00:32.325Z,1.30
2024-05-09T14:03:09.472Z,1.30
2024-05-09T14:05:36.346Z,1.60
2024-05-09T14:08:03.194Z,1.30
2024-05-09T14:10:31.784Z,1.40
2024-05-09T14:12:59.144Z,1.35
2024-05-09T14:15:25.709Z,1.15
2024-05-09T14:17:52.393Z,1.30
2024-05-09T14:20:28.496Z,1.25
2024-05-09T14:22:58.178Z,1.20
2024-05-09T14:25:26.791Z,1.40
2024-05-09T14:27:53.671Z,1.42
2024-05-09T14:30:29.778Z,1.35
2024-05-09T14:33:01.434Z,1.10
2024-05-09T14:35:28.208Z,0.80
2024-05-09T14:37:54.739Z,0.90
2024-05-09T14:40:35.558Z,1.30
2024-05-09T14:43:07.413Z,1.27
2024-05-09T14:45:34.870Z,1.15
2024-05-09T14:48:04.824Z,1.13
2024-05-09T14:50:36.996Z,1.10
2024-05-09T14:53:06.777Z,1.05
2024-05-09T14:55:38.885Z,1.08
2024-05-09T14:58:06.216Z,1.20
2024-05-09T15:00:36.070Z,1.20
2024-05-09T15:05:30.498Z,1.30
2024-05-09T15:07:57.977Z,1.25
2024-05-09T15:10:33.495Z,0.93
2024-05-09T15:13:02.811Z,1.08
2024-05-09T15:15:29.495Z,1.10
2024-05-09T15:17:56.277Z,1.30
2024-05-09T15:20:31.016Z,1.30
2024-05-09T15:23:01.924Z,1.40
2024-05-09T15:25:28.650Z,1.10
2024-05-09T15:27:55.388Z,1.35
2024-05-09T15:30:30.549Z,1.20
2024-05-09T15:32:59.631Z,1.58
2024-05-09T15:35:26.292Z,1.77
2024-05-09T15:37:52.964Z,1.55
2024-05-09T15:40:30.395Z,1.20
2024-05-09T15:43:04.254Z,1.42
2024-05-09T15:45:30.932Z,1.50
2024-05-09T15:47:57.914Z,1.50
2024-05-09T15:50:36.288Z,1.55
2024-05-09T15:53:07.208Z,1.52
2024-05-09T15:55:34.885Z,1.50
2024-05-09T15:58:02.172Z,1.70
2024-05-09T16:00:36.868Z,1.58
2024-05-09T16:03:07.435Z,1.50
2024-05-09T16:05:34.469Z,1.30
2024-05-09T16:08:01.285Z,1.80
2024-05-09T16:10:32.609Z,1.52
2024-05-09T16:13:01.037Z,1.58
2024-05-09T16:15:27.741Z,1.50
2024-05-09T16:17:54.363Z,1.60
2024-05-09T16:20:33.751Z,1.48
2024-05-09T16:23:05.722Z,1.60
2024-05-09T16:25:32.323Z,1.48
2024-05-09T16:27:58.944Z,1.50
2024-05-09T16:30:32.097Z,1.60
2024-05-09T16:33:02.134Z,1.55
2024-05-09T16:35:28.890Z,1.70
2024-05-09T16:37:55.654Z,1.63
2024-05-09T16:40:30.118Z,1.55
2024-05-09T16:43:04.291Z,1.52
2024-05-09T16:45:31.251Z,1.73
2024-05-09T16:47:59.072Z,1.75
2024-05-09T16:50:31.071Z,1.52
2024-05-09T16:52:59.974Z,1.38
2024-05-09T16:55:26.772Z,1.60
2024-05-09T16:57:53.448Z,1.48
2024-05-09T17:00:31.027Z,1.60
2024-05-09T17:03:06.202Z,1.60
2024-05-09T17:05:33.590Z,1.50
2024-05-09T17:08:01.268Z,1.40
2024-05-09T17:10:32.737Z,1.58
2024-05-09T17:13:01.791Z,1.50
2024-05-09T17:15:28.517Z,1.70
2024-05-09T17:17:55.250Z,1.60
2024-05-09T17:20:29.547Z,1.70
2024-05-09T17:23:00.487Z,1.85
2024-05-09T17:25:27.113Z,1.70
2024-05-09T17:27:54.270Z,1.77
2024-05-09T17:30:31.558Z,1.88
2024-05-09T17:33:02.418Z,1.73
2024-05-09T17:35:29.145Z,1.75
2024-05-09T17:37:55.845Z,1.50
2024-05-09T17:40:30.881Z,1.40
2024-05-09T17:43:01.467Z,1.55
2024-05-09T17:45:28.359Z,1.58
2024-05-09T17:47:55.285Z,1.58
2024-05-09T17:50:27.942Z,1.67
2024-05-09T17:53:01.001Z,1.70
2024-05-09T17:55:27.688Z,1.58
2024-05-09T17:57:54.404Z,1.30
2024-05-09T18:00:29.309Z,1.65
2024-05-09T18:03:04.474Z,1.65
2024-05-09T18:05:31.576Z,1.80
2024-05-09T18:07:58.517Z,1.60
2024-05-09T18:10:32.824Z,1.38
2024-05-09T18:13:05.820Z,1.80
2024-05-09T18:15:33.085Z,1.50
2024-05-09T18:18:00.085Z,1.40
2024-05-09T18:20:37.867Z,1.65
2024-05-09T18:23:09.946Z,1.77
2024-05-09T18:25:36.604Z,1.98
2024-05-09T18:28:03.617Z,1.65
2024-05-09T18:30:34.884Z,1.73
2024-05-09T18:33:03.938Z,1.70
2024-05-09T18:35:30.839Z,1.83
2024-05-09T18:37:57.413Z,1.83
2024-05-09T18:40:31.338Z,2.00
2024-05-09T18:43:02.001Z,2.17
2024-05-09T18:45:28.944Z,2.08
2024-05-09T18:47:55.838Z,1.65
2024-05-09T18:50:31.847Z,1.70
2024-05-09T18:53:02.973Z,1.60
2024-05-09T18:55:29.588Z,1.35
2024-05-09T18:57:56.306Z,1.42
2024-05-09T19:00:31.560Z,1.35
2024-05-09T19:03:11.610Z,1.40
2024-05-09T19:05:40.943Z,1.58
2024-05-09T19:08:08.204Z,1.40
2024-05-09T19:10:36.369Z,1.38
2024-05-09T19:13:09.175Z,1.52
2024-05-09T19:15:39.679Z,1.63
2024-05-09T19:18:07.053Z,1.30
2024-05-09T19:20:35.729Z,1.13
2024-05-09T19:23:04.925Z,1.27
2024-05-09T19:25:32.176Z,1.50
2024-05-09T19:27:58.862Z,1.48
2024-05-09T19:30:34.466Z,2.00
2024-05-09T19:35:37.048Z,1.55
2024-05-09T19:38:03.844Z,1.58
2024-05-09T19:40:32.920Z,1.63
2024-05-09T19:43:02.173Z,1.50
2024-05-09T19:45:36.133Z,1.48
2024-05-09T19:48:03.510Z,1.55
2024-05-09T19:50:37.878Z,1.65
2024-05-09T19:53:11.436Z,1.45
2024-05-09T19:55:38.331Z,1.50
2024-05-09T19:58:07.110Z,1.60
2024-05-09T20:00:36.739Z,1.27
2024-05-09T20:03:05.613Z,1.05
2024-05-09T20:05:32.627Z,1.15
2024-05-09T20:07:59.510Z,1.30
2024-05-09T20:10:31.469Z,1.10
2024-05-09T20:13:00.129Z,1.30
2024-05-09T20:15:26.873Z,1.35
2024-05-09T20:17:53.811Z,1.30
2024-05-09T20:20:28.705Z,1.30
2024-05-09T20:23:03.003Z,1.48
2024-05-09T20:25:29.768Z,1.13
2024-05-09T20:27:56.398Z,1.33
2024-05-09T20:30:31.415Z,1.00
2024-05-09T20:33:00.410Z,1.10
2024-05-09T20:35:27.176Z,1.40
2024-05-09T20:37:53.800Z,1.10
2024-05-09T20:40:28.378Z,1.15
2024-05-09T20:42:59.210Z,1.13
2024-05-09T20:45:26.026Z,1.10
2024-05-09T20:47:52.706Z,1.10
2024-05-09T20:50:28.132Z,1.08
2024-05-09T20:53:02.622Z,1.45
2024-05-09T20:55:29.852Z,1.10
2024-05-09T20:57:56.837Z,1.10
2024-05-09T21:00:30.103Z,1.20
2024-05-09T21:03:04.933Z,1.30
2024-05-09T21:05:31.975Z,1.10
2024-05-09T21:07:58.743Z,1.00
2024-05-09T21:10:27.129Z,1.33
2024-05-09T21:12:57.550Z,1.25
2024-05-09T21:15:24.060Z,1.38
2024-05-09T21:17:50.627Z,1.20
2024-05-09T21:20:20.744Z,1.40
2024-05-09T21:22:50.919Z,1.60
2024-05-09T21:25:17.490Z,1.48
2024-05-09T21:27:44.130Z,1.70
2024-05-09T21:30:18.623Z,1.70
2024-05-09T21:32:54.369Z,1.52
2024-05-09T21:35:20.919Z,1.40
2024-05-09T21:37:47.456Z,1.58
2024-05-09T21:40:24.161Z,1.90
2024-05-09T21:42:57.825Z,1.90
2024-05-09T21:45:24.398Z,1.98
2024-05-09T21:47:51.113Z,1.88
2024-05-09T21:50:22.927Z,2.10
2024-05-09T21:52:54.763Z,1.88
2024-05-09T21:55:21.259Z,1.90
2024-05-09T21:57:49.294Z,1.63
2024-05-09T22:00:28.215Z,1.90
2024-05-09T22:03:01.685Z,1.55
2024-05-09T22:05:28.466Z,1.33
2024-05-09T22:07:55.182Z,1.58
2024-05-09T22:10:26.497Z,2.10
2024-05-09T22:12:59.264Z,1.90
2024-05-09T22:15:25.892Z,1.83
2024-05-09T22:17:52.592Z,1.90
2024-05-09T22:20:26.022Z,1.83
2024-05-09T22:23:00.576Z,2.00
2024-05-09T22:25:29.700Z,2.13
2024-05-09T22:27:57.026Z,2.05
2024-05-09T22:30:31.172Z,2.15
2024-05-09T22:33:01.987Z,2.03
2024-05-09T22:35:28.562Z,1.77
2024-05-09T22:37:57.964Z,1.70
2024-05-09T22:40:37.420Z,1.70
2024-05-09T22:43:12.318Z,1.70
2024-05-09T22:45:39.279Z,2.00
2024-05-09T22:48:06.349Z,1.83
2024-05-09T22:50:33.779Z,2.15
2024-05-09T22:53:00.843Z,1.63
2024-05-09T22:55:27.496Z,1.92
2024-05-09T22:57:54.038Z,1.65
2024-05-09T23:00:29.204Z,1.13
2024-05-09T23:02:59.633Z,1.52
2024-05-09T23:05:26.379Z,2.00
2024-05-09T23:07:53.051Z,1.80
2024-05-09T23:10:27.434Z,2.05
2024-05-09T23:12:58.855Z,1.55
2024-05-09T23:15:25.582Z,1.92
2024-05-09T23:17:53.325Z,1.70
2024-05-09T23:20:29.904Z,1.98
2024-05-09T23:23:03.578Z,1.33
2024-05-09T23:25:30.192Z,1.65
2024-05-09T23:27:56.888Z,1.73
2024-05-09T23:30:33.204Z,2.20
2024-05-09T23:33:04.600Z,1.88
2024-05-09T23:35:31.259Z,1.70
2024-05-09T23:37:57.795Z,1.55
2024-05-09T23:40:34.656Z,1.60
2024-05-09T23:43:05.387Z,1.67
2024-05-09T23:45:31.930Z,1.45
2024-05-09T23:47:58.553Z,1.90
2024-05-09T23:50:33.273Z,1.42
2024-05-09T23:53:03.012Z,1.40
2024-05-09T23:55:31.359Z,1.20
2024-05-09T23:57:58.143Z,1.35
